sensor_id;sensor_type;location;lat;lon;timestamp;P1;durP1;ratioP1;P2;durP2;ratioP2
13477;SDS011;12598;62.382;17.344;2023-01-20T00:00:30;0.77;;;0.77;;
13477;SDS011;12598;62.382;17.344;2023-01-20T00:01:32;1.20;;;0.80;;
13477;SDS011;12598;62.382;17.344;2023-01-20T00:02:36;0.70;;;0.70;;
13477;SDS011;12598;62.382;17.344;2023-01-20T00:03:39;0.80;;;0.80;;
13477;SDS011;12598;62.382;17.344;2023-01-20T00:04:42;1.17;;;0.80;;
13477;SDS011;12598;62.382;17.344;2023-01-20T00:05:50;0.88;;;0.88;;
13477;SDS011;12598;62.382;17.344;2023-01-20T00:06:53;1.13;;;1.00;;
13477;SDS011;12598;62.382;17.344;2023-01-20T00:07:55;0.98;;;0.88;;
13477;SDS011;12598;62.382;17.344;2023-01-20T00:08:57;0.80;;;0.80;;
13477;SDS011;12598;62.382;17.344;2023-01-20T00:10:01;1.00;;;0.90;;
13477;SDS011;12598;62.382;17.344;2023-01-20T00:11:03;1.08;;;0.80;;
13477;SDS011;12598;62.382;17.344;2023-01-20T00:12:09;0.82;;;0.80;;
13477;SDS011;12598;62.382;17.344;2023-01-20T00:13:11;0.88;;;0.88;;
13477;SDS011;12598;62.382;17.344;2023-01-20T00:14:13;0.75;;;0.75;;
13477;SDS011;12598;62.382;17.344;2023-01-20T00:15:15;0.70;;;0.68;;
13477;SDS011;12598;62.382;17.344;2023-01-20T00:16:17;0.60;;;0.60;;
13477;SDS011;12598;62.382;17.344;2023-01-20T00:17:18;1.13;;;0.70;;
13477;SDS011;12598;62.382;17.344;2023-01-20T00:18:20;1.05;;;0.90;;
13477;SDS011;12598;62.382;17.344;2023-01-20T00:19:22;0.95;;;0.90;;
13477;SDS011;12598;62.382;17.344;2023-01-20T00:20:24;0.70;;;0.70;;
13477;SDS011;12598;62.382;17.344;2023-01-20T00:21:26;0.80;;;0.80;;
13477;SDS011;12598;62.382;17.344;2023-01-20T00:22:28;1.17;;;1.08;;
13477;SDS011;12598;62.382;17.344;2023-01-20T00:23:30;0.98;;;0.90;;
13477;SDS011;12598;62.382;17.344;2023-01-20T00:24:33;0.80;;;0.80;;
13477;SDS011;12598;62.382;17.344;2023-01-20T00:25:35;0.63;;;0.63;;
13477;SDS011;12598;62.382;17.344;2023-01-20T00:26:37;1.48;;;1.00;;
13477;SDS011;12598;62.382;17.344;2023-01-20T00:27:39;0.95;;;0.90;;
13477;SDS011;12598;62.382;17.344;2023-01-20T00:28:41;1.02;;;0.93;;
13477;SDS011;12598;62.382;17.344;2023-01-20T00:29:44;0.88;;;0.80;;
13477;SDS011;12598;62.382;17.344;2023-01-20T00:30:47;1.10;;;1.00;;
13477;SDS011;12598;62.382;17.344;2023-01-20T00:31:48;0.75;;;0.75;;
13477;SDS011;12598;62.382;17.344;2023-01-20T00:32:50;0.70;;;0.70;;
13477;SDS011;12598;62.382;17.344;2023-01-20T00:33:53;1.05;;;0.70;;
13477;SDS011;12598;62.382;17.344;2023-01-20T00:34:57;0.95;;;0.95;;
13477;SDS011;12598;62.382;17.344;2023-01-20T00:35:59;0.80;;;0.80;;
13477;SDS011;12598;62.382;17.344;2023-01-20T00:37:01;0.88;;;0.88;;
13477;SDS011;12598;62.382;17.344;2023-01-20T00:38:03;0.80;;;0.80;;
13477;SDS011;12598;62.382;17.344;2023-01-20T00:39:05;0.70;;;0.70;;
13477;SDS011;12598;62.382;17.344;2023-01-20T00:40:07;0.80;;;0.80;;
13477;SDS011;12598;62.382;17.344;2023-01-20T00:41:09;0.82;;;0.82;;
13477;SDS011;12598;62.382;17.344;2023-01-20T00:42:12;0.93;;;0.93;;
13477;SDS011;12598;62.382;17.344;2023-01-20T00:43:13;0.95;;;0.85;;
13477;SDS011;12598;62.382;17.344;2023-01-20T00:44:15;0.95;;;0.90;;
13477;SDS011;12598;62.382;17.344;2023-01-20T00:45:17;1.10;;;1.00;;
13477;SDS011;12598;62.382;17.344;2023-01-20T00:46:19;0.77;;;0.77;;
13477;SDS011;12598;62.382;17.344;2023-01-20T00:47:23;1.13;;;0.95;;
13477;SDS011;12598;62.382;17.344;2023-01-20T00:48:25;1.00;;;0.90;;
13477;SDS011;12598;62.382;17.344;2023-01-20T00:49:27;0.73;;;0.73;;
13477;SDS011;12598;62.382;17.344;2023-01-20T00:50:28;1.15;;;1.00;;
13477;SDS011;12598;62.382;17.344;2023-01-20T00:51:30;0.80;;;0.80;;
13477;SDS011;12598;62.382;17.344;2023-01-20T00:52:32;0.80;;;0.80;;
13477;SDS011;12598;62.382;17.344;2023-01-20T00:53:34;1.13;;;0.88;;
13477;SDS011;12598;62.382;17.344;2023-01-20T00:54:37;0.70;;;0.70;;
13477;SDS011;12598;62.382;17.344;2023-01-20T00:55:38;1.10;;;0.80;;
13477;SDS011;12598;62.382;17.344;2023-01-20T00:56:40;0.80;;;0.80;;
13477;SDS011;12598;62.382;17.344;2023-01-20T00:57:42;1.05;;;0.77;;
13477;SDS011;12598;62.382;17.344;2023-01-20T00:58:44;1.13;;;0.80;;
13477;SDS011;12598;62.382;17.344;2023-01-20T00:59:46;0.93;;;0.80;;
13477;SDS011;12598;62.382;17.344;2023-01-20T01:00:49;1.33;;;0.95;;
13477;SDS011;12598;62.382;17.344;2023-01-20T01:01:52;0.88;;;0.77;;
13477;SDS011;12598;62.382;17.344;2023-01-20T01:02:54;1.48;;;0.68;;
13477;SDS011;12598;62.382;17.344;2023-01-20T01:03:56;1.10;;;0.90;;
13477;SDS011;12598;62.382;17.344;2023-01-20T01:04:58;0.77;;;0.70;;
13477;SDS011;12598;62.382;17.344;2023-01-20T01:06:13;1.02;;;0.85;;
13477;SDS011;12598;62.382;17.344;2023-01-20T01:07:16;1.60;;;0.93;;
13477;SDS011;12598;62.382;17.344;2023-01-20T01:08:18;0.88;;;0.70;;
13477;SDS011;12598;62.382;17.344;2023-01-20T01:09:20;0.75;;;0.60;;
13477;SDS011;12598;62.382;17.344;2023-01-20T01:10:22;1.02;;;0.93;;
13477;SDS011;12598;62.382;17.344;2023-01-20T01:11:24;0.63;;;0.60;;
13477;SDS011;12598;62.382;17.344;2023-01-20T01:12:26;0.60;;;0.60;;
13477;SDS011;12598;62.382;17.344;2023-01-20T01:13:28;1.25;;;0.70;;
13477;SDS011;12598;62.382;17.344;2023-01-20T01:14:30;0.60;;;0.60;;
13477;SDS011;12598;62.382;17.344;2023-01-20T01:15:32;0.50;;;0.43;;
13477;SDS011;12598;62.382;17.344;2023-01-20T01:16:35;0.70;;;0.65;;
13477;SDS011;12598;62.382;17.344;2023-01-20T01:17:36;0.68;;;0.68;;
13477;SDS011;12598;62.382;17.344;2023-01-20T01:18:38;0.80;;;0.80;;
13477;SDS011;12598;62.382;17.344;2023-01-20T01:19:41;0.70;;;0.65;;
13477;SDS011;12598;62.382;17.344;2023-01-20T01:20:43;0.65;;;0.65;;
13477;SDS011;12598;62.382;17.344;2023-01-20T01:21:45;0.75;;;0.73;;
13477;SDS011;12598;62.382;17.344;2023-01-20T01:22:47;1.65;;;0.80;;
13477;SDS011;12598;62.382;17.344;2023-01-20T01:23:50;0.70;;;0.70;;
13477;SDS011;12598;62.382;17.344;2023-01-20T01:24:53;0.60;;;0.60;;
13477;SDS011;12598;62.382;17.344;2023-01-20T01:25:55;0.70;;;0.70;;
13477;SDS011;12598;62.382;17.344;2023-01-20T01:26:57;0.93;;;0.73;;
13477;SDS011;12598;62.382;17.344;2023-01-20T01:27:58;0.73;;;0.70;;
13477;SDS011;12598;62.382;17.344;2023-01-20T01:29:00;0.52;;;0.52;;
13477;SDS011;12598;62.382;17.344;2023-01-20T01:30:02;0.88;;;0.88;;
13477;SDS011;12598;62.382;17.344;2023-01-20T01:31:05;0.82;;;0.82;;
13477;SDS011;12598;62.382;17.344;2023-01-20T01:32:08;0.85;;;0.80;;
13477;SDS011;12598;62.382;17.344;2023-01-20T01:33:10;0.60;;;0.60;;
13477;SDS011;12598;62.382;17.344;2023-01-20T01:34:12;0.65;;;0.65;;
13477;SDS011;12598;62.382;17.344;2023-01-20T01:35:14;0.70;;;0.60;;
13477;SDS011;12598;62.382;17.344;2023-01-20T01:36:16;0.82;;;0.73;;
13477;SDS011;12598;62.382;17.344;2023-01-20T01:37:18;0.65;;;0.60;;
13477;SDS011;12598;62.382;17.344;2023-01-20T01:38:20;0.90;;;0.80;;
13477;SDS011;12598;62.382;17.344;2023-01-20T01:39:22;0.70;;;0.70;;
13477;SDS011;12598;62.382;17.344;2023-01-20T01:40:24;0.60;;;0.60;;
13477;SDS011;12598;62.382;17.344;2023-01-20T01:41:26;1.20;;;0.90;;
13477;SDS011;12598;62.382;17.344;2023-01-20T01:42:27;0.63;;;0.57;;
13477;SDS011;12598;62.382;17.344;2023-01-20T01:43:33;0.98;;;0.73;;
13477;SDS011;12598;62.382;17.344;2023-01-20T01:44:38;0.52;;;0.43;;
13477;SDS011;12598;62.382;17.344;2023-01-20T01:46:00;0.60;;;0.60;;
13477;SDS011;12598;62.382;17.344;2023-01-20T01:47:02;0.75;;;0.75;;
13477;SDS011;12598;62.382;17.344;2023-01-20T01:48:06;0.70;;;0.70;;
13477;SDS011;12598;62.382;17.344;2023-01-20T01:49:12;0.88;;;0.70;;
13477;SDS011;12598;62.382;17.344;2023-01-20T01:50:33;0.80;;;0.80;;
13477;SDS011;12598;62.382;17.344;2023-01-20T01:52:06;0.73;;;0.73;;
13477;SDS011;12598;62.382;17.344;2023-01-20T01:53:09;1.00;;;0.90;;
13477;SDS011;12598;62.382;17.344;2023-01-20T01:54:14;0.63;;;0.60;;
13477;SDS011;12598;62.382;17.344;2023-01-20T01:55:20;0.70;;;0.70;;
13477;SDS011;12598;62.382;17.344;2023-01-20T01:56:26;0.60;;;0.60;;
13477;SDS011;12598;62.382;17.344;2023-01-20T01:57:30;1.33;;;0.68;;
13477;SDS011;12598;62.382;17.344;2023-01-20T01:58:34;1.05;;;0.93;;
13477;SDS011;12598;62.382;17.344;2023-01-20T01:59:37;0.80;;;0.77;;
13477;SDS011;12598;62.382;17.344;2023-01-20T02:00:40;0.70;;;0.70;;
13477;SDS011;12598;62.382;17.344;2023-01-20T02:01:44;0.80;;;0.80;;
13477;SDS011;12598;62.382;17.344;2023-01-20T02:02:49;0.95;;;0.95;;
13477;SDS011;12598;62.382;17.344;2023-01-20T02:03:56;0.60;;;0.60;;
13477;SDS011;12598;62.382;17.344;2023-01-20T02:05:01;0.50;;;0.50;;
13477;SDS011;12598;62.382;17.344;2023-01-20T02:06:03;0.70;;;0.70;;
13477;SDS011;12598;62.382;17.344;2023-01-20T02:07:07;0.63;;;0.63;;
13477;SDS011;12598;62.382;17.344;2023-01-20T02:08:16;0.80;;;0.80;;
13477;SDS011;12598;62.382;17.344;2023-01-20T02:09:18;0.80;;;0.80;;
13477;SDS011;12598;62.382;17.344;2023-01-20T02:10:20;0.63;;;0.60;;
13477;SDS011;12598;62.382;17.344;2023-01-20T02:11:22;0.80;;;0.80;;
13477;SDS011;12598;62.382;17.344;2023-01-20T02:12:24;0.80;;;0.80;;
13477;SDS011;12598;62.382;17.344;2023-01-20T02:13:26;1.00;;;0.90;;
13477;SDS011;12598;62.382;17.344;2023-01-20T02:14:29;0.80;;;0.80;;
13477;SDS011;12598;62.382;17.344;2023-01-20T02:15:52;0.77;;;0.60;;
13477;SDS011;12598;62.382;17.344;2023-01-20T02:18:20;0.77;;;0.77;;
13477;SDS011;12598;62.382;17.344;2023-01-20T02:22:02;0.90;;;0.90;;
13477;SDS011;12598;62.382;17.344;2023-01-20T02:25:36;0.60;;;0.60;;
13477;SDS011;12598;62.382;17.344;2023-01-20T02:30:46;0.80;;;0.80;;
13477;SDS011;12598;62.382;17.344;2023-01-20T02:32:15;0.77;;;0.70;;
13477;SDS011;12598;62.382;17.344;2023-01-20T02:33:33;0.60;;;0.50;;
13477;SDS011;12598;62.382;17.344;2023-01-20T02:34:54;0.85;;;0.77;;
13477;SDS011;12598;62.382;17.344;2023-01-20T02:36:12;0.98;;;0.93;;
13477;SDS011;12598;62.382;17.344;2023-01-20T02:38:58;0.40;;;0.40;;
13477;SDS011;12598;62.382;17.344;2023-01-20T02:42:58;0.57;;;0.57;;
13477;SDS011;12598;62.382;17.344;2023-01-20T02:45:21;0.70;;;0.70;;
13477;SDS011;12598;62.382;17.344;2023-01-20T02:48:54;0.75;;;0.75;;
13477;SDS011;12598;62.382;17.344;2023-01-20T02:50:21;0.75;;;0.60;;
13477;SDS011;12598;62.382;17.344;2023-01-20T02:51:28;0.70;;;0.70;;
13477;SDS011;12598;62.382;17.344;2023-01-20T02:52:38;0.70;;;0.70;;
13477;SDS011;12598;62.382;17.344;2023-01-20T02:53:50;0.70;;;0.70;;
13477;SDS011;12598;62.382;17.344;2023-01-20T02:54:59;0.77;;;0.70;;
13477;SDS011;12598;62.382;17.344;2023-01-20T02:56:05;0.80;;;0.80;;
13477;SDS011;12598;62.382;17.344;2023-01-20T02:57:11;0.85;;;0.77;;
13477;SDS011;12598;62.382;17.344;2023-01-20T02:58:18;0.70;;;0.70;;
13477;SDS011;12598;62.382;17.344;2023-01-20T02:59:32;0.50;;;0.50;;
13477;SDS011;12598;62.382;17.344;2023-01-20T03:00:40;0.85;;;0.80;;
13477;SDS011;12598;62.382;17.344;2023-01-20T03:02:19;0.65;;;0.57;;
13477;SDS011;12598;62.382;17.344;2023-01-20T03:03:21;0.60;;;0.55;;
13477;SDS011;12598;62.382;17.344;2023-01-20T03:04:29;0.60;;;0.60;;
13477;SDS011;12598;62.382;17.344;2023-01-20T03:05:36;0.80;;;0.80;;
13477;SDS011;12598;62.382;17.344;2023-01-20T03:06:45;0.57;;;0.55;;
13477;SDS011;12598;62.382;17.344;2023-01-20T03:07:50;0.50;;;0.47;;
13477;SDS011;12598;62.382;17.344;2023-01-20T03:08:54;0.60;;;0.60;;
13477;SDS011;12598;62.382;17.344;2023-01-20T03:09:58;0.70;;;0.70;;
13477;SDS011;12598;62.382;17.344;2023-01-20T03:11:05;0.80;;;0.73;;
13477;SDS011;12598;62.382;17.344;2023-01-20T03:12:22;0.60;;;0.60;;
13477;SDS011;12598;62.382;17.344;2023-01-20T03:13:38;0.55;;;0.52;;
13477;SDS011;12598;62.382;17.344;2023-01-20T03:14:44;0.60;;;0.50;;
13477;SDS011;12598;62.382;17.344;2023-01-20T03:16:54;0.60;;;0.55;;
13477;SDS011;12598;62.382;17.344;2023-01-20T03:17:56;0.57;;;0.40;;
13477;SDS011;12598;62.382;17.344;2023-01-20T03:18:58;0.60;;;0.50;;
13477;SDS011;12598;62.382;17.344;2023-01-20T03:20:00;0.63;;;0.60;;
13477;SDS011;12598;62.382;17.344;2023-01-20T03:21:03;0.60;;;0.57;;
13477;SDS011;12598;62.382;17.344;2023-01-20T03:22:07;0.70;;;0.52;;
13477;SDS011;12598;62.382;17.344;2023-01-20T03:23:09;0.57;;;0.57;;
13477;SDS011;12598;62.382;17.344;2023-01-20T03:24:11;0.55;;;0.55;;
13477;SDS011;12598;62.382;17.344;2023-01-20T03:25:14;0.50;;;0.43;;
13477;SDS011;12598;62.382;17.344;2023-01-20T03:26:19;0.70;;;0.50;;
13477;SDS011;12598;62.382;17.344;2023-01-20T03:27:23;0.70;;;0.63;;
13477;SDS011;12598;62.382;17.344;2023-01-20T03:28:25;0.63;;;0.60;;
13477;SDS011;12598;62.382;17.344;2023-01-20T03:29:27;0.73;;;0.50;;
13477;SDS011;12598;62.382;17.344;2023-01-20T03:30:31;0.40;;;0.35;;
13477;SDS011;12598;62.382;17.344;2023-01-20T03:31:43;0.70;;;0.70;;
13477;SDS011;12598;62.382;17.344;2023-01-20T03:32:48;0.70;;;0.60;;
13477;SDS011;12598;62.382;17.344;2023-01-20T03:33:52;0.77;;;0.50;;
13477;SDS011;12598;62.382;17.344;2023-01-20T03:34:57;0.50;;;0.50;;
13477;SDS011;12598;62.382;17.344;2023-01-20T03:35:59;0.55;;;0.55;;
13477;SDS011;12598;62.382;17.344;2023-01-20T03:37:01;0.50;;;0.50;;
13477;SDS011;12598;62.382;17.344;2023-01-20T03:38:04;1.35;;;0.63;;
13477;SDS011;12598;62.382;17.344;2023-01-20T03:39:06;0.60;;;0.60;;
13477;SDS011;12598;62.382;17.344;2023-01-20T03:40:09;0.43;;;0.43;;
13477;SDS011;12598;62.382;17.344;2023-01-20T03:43:18;0.50;;;0.50;;
13477;SDS011;12598;62.382;17.344;2023-01-20T03:45:53;0.65;;;0.65;;
13477;SDS011;12598;62.382;17.344;2023-01-20T03:47:05;1.00;;;0.82;;
13477;SDS011;12598;62.382;17.344;2023-01-20T03:48:22;0.43;;;0.43;;
13477;SDS011;12598;62.382;17.344;2023-01-20T03:50:57;0.73;;;0.50;;
13477;SDS011;12598;62.382;17.344;2023-01-20T03:52:10;0.50;;;0.50;;
13477;SDS011;12598;62.382;17.344;2023-01-20T03:53:49;0.60;;;0.60;;
13477;SDS011;12598;62.382;17.344;2023-01-20T03:56:38;0.43;;;0.43;;
13477;SDS011;12598;62.382;17.344;2023-01-20T03:57:47;0.68;;;0.40;;
13477;SDS011;12598;62.382;17.344;2023-01-20T03:58:56;0.45;;;0.43;;
13477;SDS011;12598;62.382;17.344;2023-01-20T04:00:02;0.63;;;0.40;;
13477;SDS011;12598;62.382;17.344;2023-01-20T04:01:12;0.60;;;0.35;;
13477;SDS011;12598;62.382;17.344;2023-01-20T04:02:19;0.60;;;0.60;;
13477;SDS011;12598;62.382;17.344;2023-01-20T04:03:27;0.63;;;0.60;;
13477;SDS011;12598;62.382;17.344;2023-01-20T04:04:32;0.50;;;0.50;;
13477;SDS011;12598;62.382;17.344;2023-01-20T04:05:37;0.40;;;0.40;;
13477;SDS011;12598;62.382;17.344;2023-01-20T04:06:41;0.50;;;0.43;;
13477;SDS011;12598;62.382;17.344;2023-01-20T04:07:44;0.47;;;0.40;;
13477;SDS011;12598;62.382;17.344;2023-01-20T04:08:50;0.40;;;0.40;;
13477;SDS011;12598;62.382;17.344;2023-01-20T04:09:59;0.60;;;0.60;;
13477;SDS011;12598;62.382;17.344;2023-01-20T04:11:06;0.70;;;0.60;;
13477;SDS011;12598;62.382;17.344;2023-01-20T04:12:09;0.50;;;0.50;;
13477;SDS011;12598;62.382;17.344;2023-01-20T04:13:11;0.50;;;0.50;;
13477;SDS011;12598;62.382;17.344;2023-01-20T04:14:13;0.73;;;0.60;;
13477;SDS011;12598;62.382;17.344;2023-01-20T04:15:15;0.45;;;0.45;;
13477;SDS011;12598;62.382;17.344;2023-01-20T04:16:19;0.52;;;0.50;;
13477;SDS011;12598;62.382;17.344;2023-01-20T04:17:25;0.52;;;0.45;;
13477;SDS011;12598;62.382;17.344;2023-01-20T04:18:28;0.50;;;0.50;;
13477;SDS011;12598;62.382;17.344;2023-01-20T04:19:30;0.55;;;0.55;;
13477;SDS011;12598;62.382;17.344;2023-01-20T04:20:32;0.70;;;0.70;;
13477;SDS011;12598;62.382;17.344;2023-01-20T04:21:34;0.63;;;0.47;;
13477;SDS011;12598;62.382;17.344;2023-01-20T04:22:46;1.00;;;0.70;;
13477;SDS011;12598;62.382;17.344;2023-01-20T04:23:57;0.65;;;0.52;;
13477;SDS011;12598;62.382;17.344;2023-01-20T04:25:01;0.47;;;0.40;;
13477;SDS011;12598;62.382;17.344;2023-01-20T04:26:06;0.50;;;0.50;;
13477;SDS011;12598;62.382;17.344;2023-01-20T04:27:08;0.65;;;0.65;;
13477;SDS011;12598;62.382;17.344;2023-01-20T04:28:10;0.60;;;0.47;;
13477;SDS011;12598;62.382;17.344;2023-01-20T04:29:12;0.45;;;0.45;;
13477;SDS011;12598;62.382;17.344;2023-01-20T04:30:14;0.40;;;0.40;;
13477;SDS011;12598;62.382;17.344;2023-01-20T04:31:16;0.95;;;0.73;;
13477;SDS011;12598;62.382;17.344;2023-01-20T04:32:30;0.50;;;0.50;;
13477;SDS011;12598;62.382;17.344;2023-01-20T04:33:35;0.50;;;0.50;;
13477;SDS011;12598;62.382;17.344;2023-01-20T04:34:38;0.52;;;0.50;;
13477;SDS011;12598;62.382;17.344;2023-01-20T04:35:40;0.77;;;0.77;;
13477;SDS011;12598;62.382;17.344;2023-01-20T04:36:42;0.52;;;0.52;;
13477;SDS011;12598;62.382;17.344;2023-01-20T04:37:44;0.93;;;0.68;;
13477;SDS011;12598;62.382;17.344;2023-01-20T04:38:46;0.60;;;0.60;;
13477;SDS011;12598;62.382;17.344;2023-01-20T04:39:48;0.70;;;0.70;;
13477;SDS011;12598;62.382;17.344;2023-01-20T04:40:49;0.70;;;0.70;;
13477;SDS011;12598;62.382;17.344;2023-01-20T04:41:52;0.60;;;0.60;;
13477;SDS011;12598;62.382;17.344;2023-01-20T04:42:54;0.65;;;0.60;;
13477;SDS011;12598;62.382;17.344;2023-01-20T04:43:55;0.80;;;0.70;;
13477;SDS011;12598;62.382;17.344;2023-01-20T04:44:57;0.40;;;0.40;;
13477;SDS011;12598;62.382;17.344;2023-01-20T04:45:59;0.50;;;0.50;;
13477;SDS011;12598;62.382;17.344;2023-01-20T04:47:01;0.57;;;0.57;;
13477;SDS011;12598;62.382;17.344;2023-01-20T04:48:07;0.47;;;0.47;;
13477;SDS011;12598;62.382;17.344;2023-01-20T04:49:09;0.60;;;0.60;;
13477;SDS011;12598;62.382;17.344;2023-01-20T04:50:11;0.90;;;0.50;;
13477;SDS011;12598;62.382;17.344;2023-01-20T04:51:14;0.40;;;0.40;;
13477;SDS011;12598;62.382;17.344;2023-01-20T04:52:16;0.40;;;0.40;;
13477;SDS011;12598;62.382;17.344;2023-01-20T04:53:18;0.60;;;0.57;;
13477;SDS011;12598;62.382;17.344;2023-01-20T04:54:20;0.65;;;0.65;;
13477;SDS011;12598;62.382;17.344;2023-01-20T04:55:22;0.60;;;0.60;;
13477;SDS011;12598;62.382;17.344;2023-01-20T04:56:24;0.60;;;0.60;;
13477;SDS011;12598;62.382;17.344;2023-01-20T04:57:26;0.55;;;0.50;;
13477;SDS011;12598;62.382;17.344;2023-01-20T04:58:28;0.70;;;0.70;;
13477;SDS011;12598;62.382;17.344;2023-01-20T04:59:30;0.50;;;0.50;;
13477;SDS011;12598;62.382;17.344;2023-01-20T05:00:31;0.65;;;0.60;;
13477;SDS011;12598;62.382;17.344;2023-01-20T05:01:33;0.60;;;0.60;;
13477;SDS011;12598;62.382;17.344;2023-01-20T05:02:35;0.50;;;0.50;;
13477;SDS011;12598;62.382;17.344;2023-01-20T05:03:37;0.57;;;0.57;;
13477;SDS011;12598;62.382;17.344;2023-01-20T05:04:39;0.73;;;0.60;;
13477;SDS011;12598;62.382;17.344;2023-01-20T05:05:41;0.50;;;0.50;;
13477;SDS011;12598;62.382;17.344;2023-01-20T05:06:43;0.50;;;0.50;;
13477;SDS011;12598;62.382;17.344;2023-01-20T05:07:45;0.75;;;0.60;;
13477;SDS011;12598;62.382;17.344;2023-01-20T05:08:47;0.60;;;0.60;;
13477;SDS011;12598;62.382;17.344;2023-01-20T05:09:49;0.77;;;0.40;;
13477;SDS011;12598;62.382;17.344;2023-01-20T05:10:50;0.77;;;0.77;;
13477;SDS011;12598;62.382;17.344;2023-01-20T05:11:52;0.68;;;0.60;;
13477;SDS011;12598;62.382;17.344;2023-01-20T05:12:54;0.50;;;0.50;;
13477;SDS011;12598;62.382;17.344;2023-01-20T05:13:56;0.60;;;0.60;;
13477;SDS011;12598;62.382;17.344;2023-01-20T05:14:58;0.50;;;0.50;;
13477;SDS011;12598;62.382;17.344;2023-01-20T05:15:59;0.50;;;0.50;;
13477;SDS011;12598;62.382;17.344;2023-01-20T05:17:03;0.65;;;0.65;;
13477;SDS011;12598;62.382;17.344;2023-01-20T05:18:05;0.65;;;0.60;;
13477;SDS011;12598;62.382;17.344;2023-01-20T05:19:08;0.60;;;0.57;;
13477;SDS011;12598;62.382;17.344;2023-01-20T05:20:12;0.50;;;0.50;;
13477;SDS011;12598;62.382;17.344;2023-01-20T05:21:14;0.70;;;0.70;;
13477;SDS011;12598;62.382;17.344;2023-01-20T05:22:16;0.60;;;0.60;;
13477;SDS011;12598;62.382;17.344;2023-01-20T05:23:18;0.63;;;0.60;;
13477;SDS011;12598;62.382;17.344;2023-01-20T05:24:20;0.70;;;0.55;;
13477;SDS011;12598;62.382;17.344;2023-01-20T05:25:22;0.50;;;0.50;;
13477;SDS011;12598;62.382;17.344;2023-01-20T05:26:24;0.57;;;0.57;;
13477;SDS011;12598;62.382;17.344;2023-01-20T05:27:26;0.70;;;0.70;;
13477;SDS011;12598;62.382;17.344;2023-01-20T05:28:28;0.75;;;0.60;;
13477;SDS011;12598;62.382;17.344;2023-01-20T05:29:30;0.68;;;0.60;;
13477;SDS011;12598;62.382;17.344;2023-01-20T05:30:32;0.65;;;0.65;;
13477;SDS011;12598;62.382;17.344;2023-01-20T05:31:34;0.60;;;0.50;;
13477;SDS011;12598;62.382;17.344;2023-01-20T05:32:38;0.77;;;0.50;;
13477;SDS011;12598;62.382;17.344;2023-01-20T05:33:39;0.70;;;0.70;;
13477;SDS011;12598;62.382;17.344;2023-01-20T05:34:41;0.50;;;0.40;;
13477;SDS011;12598;62.382;17.344;2023-01-20T05:35:43;0.60;;;0.60;;
13477;SDS011;12598;62.382;17.344;2023-01-20T05:36:45;0.60;;;0.60;;
13477;SDS011;12598;62.382;17.344;2023-01-20T05:37:47;0.60;;;0.60;;
13477;SDS011;12598;62.382;17.344;2023-01-20T05:38:53;0.60;;;0.50;;
13477;SDS011;12598;62.382;17.344;2023-01-20T05:39:55;0.80;;;0.60;;
13477;SDS011;12598;62.382;17.344;2023-01-20T05:41:06;0.60;;;0.60;;
13477;SDS011;12598;62.382;17.344;2023-01-20T05:42:09;0.77;;;0.70;;
13477;SDS011;12598;62.382;17.344;2023-01-20T05:43:11;0.50;;;0.50;;
13477;SDS011;12598;62.382;17.344;2023-01-20T05:44:13;0.60;;;0.52;;
13477;SDS011;12598;62.382;17.344;2023-01-20T05:45:16;0.50;;;0.50;;
13477;SDS011;12598;62.382;17.344;2023-01-20T05:46:18;0.40;;;0.40;;
13477;SDS011;12598;62.382;17.344;2023-01-20T05:47:20;0.60;;;0.60;;
13477;SDS011;12598;62.382;17.344;2023-01-20T05:48:22;0.52;;;0.52;;
13477;SDS011;12598;62.382;17.344;2023-01-20T05:49:24;0.47;;;0.47;;
13477;SDS011;12598;62.382;17.344;2023-01-20T05:50:26;0.57;;;0.57;;
13477;SDS011;12598;62.382;17.344;2023-01-20T05:51:29;0.70;;;0.70;;
13477;SDS011;12598;62.382;17.344;2023-01-20T05:52:32;0.60;;;0.60;;
13477;SDS011;12598;62.382;17.344;2023-01-20T05:53:34;0.52;;;0.52;;
13477;SDS011;12598;62.382;17.344;2023-01-20T05:54:36;0.50;;;0.50;;
13477;SDS011;12598;62.382;17.344;2023-01-20T05:55:37;0.50;;;0.50;;
13477;SDS011;12598;62.382;17.344;2023-01-20T05:56:39;0.70;;;0.70;;
13477;SDS011;12598;62.382;17.344;2023-01-20T05:57:41;0.70;;;0.50;;
13477;SDS011;12598;62.382;17.344;2023-01-20T05:58:43;0.65;;;0.57;;
13477;SDS011;12598;62.382;17.344;2023-01-20T05:59:45;0.88;;;0.57;;
13477;SDS011;12598;62.382;17.344;2023-01-20T06:00:48;0.63;;;0.60;;
13477;SDS011;12598;62.382;17.344;2023-01-20T06:01:49;0.57;;;0.55;;
13477;SDS011;12598;62.382;17.344;2023-01-20T06:02:51;0.93;;;0.73;;
13477;SDS011;12598;62.382;17.344;2023-01-20T06:03:53;0.65;;;0.65;;
13477;SDS011;12598;62.382;17.344;2023-01-20T06:04:55;0.85;;;0.60;;
13477;SDS011;12598;62.382;17.344;2023-01-20T06:06:00;0.52;;;0.52;;
13477;SDS011;12598;62.382;17.344;2023-01-20T06:07:03;1.23;;;0.80;;
13477;SDS011;12598;62.382;17.344;2023-01-20T06:08:05;0.75;;;0.40;;
13477;SDS011;12598;62.382;17.344;2023-01-20T06:09:07;0.77;;;0.70;;
13477;SDS011;12598;62.382;17.344;2023-01-20T06:10:11;0.80;;;0.60;;
13477;SDS011;12598;62.382;17.344;2023-01-20T06:11:13;0.70;;;0.70;;
13477;SDS011;12598;62.382;17.344;2023-01-20T06:12:15;0.70;;;0.60;;
13477;SDS011;12598;62.382;17.344;2023-01-20T06:13:17;0.70;;;0.63;;
13477;SDS011;12598;62.382;17.344;2023-01-20T06:14:19;0.80;;;0.80;;
13477;SDS011;12598;62.382;17.344;2023-01-20T06:15:21;0.85;;;0.70;;
13477;SDS011;12598;62.382;17.344;2023-01-20T06:16:24;0.75;;;0.75;;
13477;SDS011;12598;62.382;17.344;2023-01-20T06:17:26;0.70;;;0.65;;
13477;SDS011;12598;62.382;17.344;2023-01-20T06:18:28;0.57;;;0.57;;
13477;SDS011;12598;62.382;17.344;2023-01-20T06:19:30;1.10;;;1.00;;
13477;SDS011;12598;62.382;17.344;2023-01-20T06:20:32;0.70;;;0.70;;
13477;SDS011;12598;62.382;17.344;2023-01-20T06:21:34;0.88;;;0.88;;
13477;SDS011;12598;62.382;17.344;2023-01-20T06:22:36;1.00;;;0.98;;
13477;SDS011;12598;62.382;17.344;2023-01-20T06:23:38;1.20;;;1.10;;
13477;SDS011;12598;62.382;17.344;2023-01-20T06:24:40;1.30;;;1.20;;
13477;SDS011;12598;62.382;17.344;2023-01-20T06:25:42;1.17;;;1.10;;
13477;SDS011;12598;62.382;17.344;2023-01-20T06:26:44;1.35;;;1.25;;
13477;SDS011;12598;62.382;17.344;2023-01-20T06:27:46;1.10;;;1.02;;
13477;SDS011;12598;62.382;17.344;2023-01-20T06:28:48;1.40;;;1.30;;
13477;SDS011;12598;62.382;17.344;2023-01-20T06:29:49;1.27;;;1.17;;
13477;SDS011;12598;62.382;17.344;2023-01-20T06:30:57;1.00;;;1.00;;
13477;SDS011;12598;62.382;17.344;2023-01-20T06:32:06;1.27;;;1.17;;
13477;SDS011;12598;62.382;17.344;2023-01-20T06:33:08;1.17;;;1.15;;
13477;SDS011;12598;62.382;17.344;2023-01-20T06:34:11;0.95;;;0.95;;
13477;SDS011;12598;62.382;17.344;2023-01-20T06:35:13;1.15;;;1.10;;
13477;SDS011;12598;62.382;17.344;2023-01-20T06:36:16;0.80;;;0.80;;
13477;SDS011;12598;62.382;17.344;2023-01-20T06:37:18;0.95;;;0.93;;
13477;SDS011;12598;62.382;17.344;2023-01-20T06:38:20;0.70;;;0.70;;
13477;SDS011;12598;62.382;17.344;2023-01-20T06:39:23;0.77;;;0.77;;
13477;SDS011;12598;62.382;17.344;2023-01-20T06:40:25;1.15;;;1.05;;
13477;SDS011;12598;62.382;17.344;2023-01-20T06:41:27;1.02;;;0.93;;
13477;SDS011;12598;62.382;17.344;2023-01-20T06:42:29;1.20;;;1.10;;
13477;SDS011;12598;62.382;17.344;2023-01-20T06:43:32;0.80;;;0.80;;
13477;SDS011;12598;62.382;17.344;2023-01-20T06:44:35;0.80;;;0.80;;
13477;SDS011;12598;62.382;17.344;2023-01-20T06:45:37;0.90;;;0.90;;
13477;SDS011;12598;62.382;17.344;2023-01-20T06:46:39;0.93;;;0.82;;